createdAt,value
2023-03-22T00:00:57.829Z,0
2023-03-22T00:02:14.128Z,0
2023-03-22T00:03:30.409Z,0
2023-03-22T00:04:46.709Z,0
2023-03-22T00:06:03.013Z,0
2023-03-22T00:07:19.290Z,0
2023-03-22T00:08:35.591Z,0
2023-03-22T00:09:51.886Z,0
2023-03-22T00:11:08.175Z,0
2023-03-22T00:12:23.485Z,0
2023-03-22T00:13:39.784Z,0
2023-03-22T00:14:56.076Z,0
2023-03-22T00:16:12.364Z,0
2023-03-22T00:17:28.661Z,0
2023-03-22T00:18:44.962Z,0
2023-03-22T00:20:01.260Z,0
2023-03-22T00:21:17.555Z,0
2023-03-22T00:22:33.836Z,0
2023-03-22T00:23:50.136Z,0
2023-03-22T00:25:06.439Z,0
2023-03-22T00:26:22.718Z,0
2023-03-22T00:27:39.017Z,0
2023-03-22T00:28:54.324Z,0
2023-03-22T00:30:10.624Z,0
2023-03-22T00:31:26.911Z,0
2023-03-22T00:32:43.215Z,0
2023-03-22T00:33:59.510Z,0
2023-03-22T00:35:15.795Z,0
2023-03-22T00:36:32.100Z,0
2023-03-22T00:37:48.382Z,0
2023-03-22T00:39:04.681Z,0
2023-03-22T00:40:20.981Z,0
2023-03-22T00:41:37.277Z,0
2023-03-22T00:42:53.565Z,0
2023-03-22T00:44:09.864Z,0
2023-03-22T00:45:25.160Z,0
2023-03-22T00:46:41.463Z,0
2023-03-22T00:47:57.761Z,0
2023-03-22T00:49:14.058Z,0
2023-03-22T00:50:30.349Z,0
2023-03-22T00:51:46.642Z,0
2023-03-22T00:53:02.940Z,0
2023-03-22T00:54:19.226Z,0
2023-03-22T00:55:35.514Z,0
2023-03-22T00:56:51.813Z,0
2023-03-22T00:58:08.110Z,0
2023-03-22T00:59:24.403Z,0
2023-03-22T01:00:40.694Z,0
2023-03-22T01:01:56.004Z,0
2023-03-22T01:03:12.302Z,0
2023-03-22T01:04:28.588Z,0
2023-03-22T01:05:44.881Z,0
2023-03-22T01:07:01.185Z,0
2023-03-22T01:08:17.473Z,0
2023-03-22T01:09:33.770Z,0
2023-03-22T01:10:50.053Z,0
2023-03-22T01:12:06.354Z,0
2023-03-22T01:13:22.645Z,0
2023-03-22T01:14:38.936Z,0
2023-03-22T01:15:55.234Z,0
2023-03-22T01:17:11.531Z,0
2023-03-22T01:18:26.839Z,0
2023-03-22T01:19:43.143Z,0
2023-03-22T01:20:59.439Z,0
2023-03-22T01:22:15.731Z,0
2023-03-22T01:23:32.013Z,0
2023-03-22T01:24:48.306Z,0
2023-03-22T01:26:04.604Z,0
2023-03-22T01:27:20.910Z,0
2023-03-22T01:28:37.191Z,0
2023-03-22T01:29:53.480Z,0
2023-03-22T01:31:09.786Z,0
2023-03-22T01:32:26.074Z,0
2023-03-22T01:33:42.369Z,0
2023-03-22T01:34:57.682Z,0
2023-03-22T01:36:13.973Z,0
2023-03-22T01:37:30.269Z,0
2023-03-22T01:38:46.574Z,0
2023-03-22T01:40:02.847Z,0
2023-03-22T01:41:19.158Z,0
2023-03-22T01:42:35.444Z,0
2023-03-22T01:43:51.736Z,0
2023-03-22T01:45:08.022Z,0
2023-03-22T01:46:24.330Z,0
2023-03-22T01:47:40.609Z,0
2023-03-22T01:48:56.909Z,0
2023-03-22T01:50:13.203Z,0
2023-03-22T01:51:28.510Z,0
2023-03-22T01:52:44.810Z,0
2023-03-22T01:54:01.097Z,0
2023-03-22T01:55:17.400Z,0
2023-03-22T01:56:33.698Z,0
2023-03-22T01:57:49.993Z,0
2023-03-22T01:59:06.274Z,0
2023-03-22T02:00:22.577Z,0
2023-03-22T02:01:38.871Z,0
2023-03-22T02:02:55.157Z,0
2023-03-22T02:04:11.466Z,0
2023-03-22T02:05:27.745Z,0
2023-03-22T02:06:44.041Z,0
2023-03-22T02:07:59.356Z,0
2023-03-22T02:09:15.653Z,0
2023-03-22T02:10:31.935Z,0
2023-03-22T02:11:48.242Z,0
2023-03-22T02:13:04.535Z,0
2023-03-22T02:14:20.824Z,0
2023-03-22T02:15:37.110Z,0
2023-03-22T02:16:53.406Z,0
2023-03-22T02:18:09.704Z,0
2023-03-22T02:19:25.990Z,0
2023-03-22T02:20:42.299Z,0
2023-03-22T02:21:58.590Z,0
2023-03-22T02:23:14.882Z,0
2023-03-22T02:24:30.198Z,0
2023-03-22T02:25:46.483Z,0
2023-03-22T02:27:02.784Z,0
2023-03-22T02:28:19.074Z,0
2023-03-22T02:29:35.363Z,0
2023-03-22T02:30:51.660Z,0
2023-03-22T02:32:07.951Z,0
2023-03-22T02:33:24.245Z,0
2023-03-22T02:34:40.543Z,0
2023-03-22T02:35:56.831Z,0
2023-03-22T02:37:13.138Z,0
2023-03-22T02:38:29.430Z,0
2023-03-22T02:39:45.716Z,0
2023-03-22T02:41:02.009Z,0
2023-03-22T02:42:17.327Z,0
2023-03-22T02:43:33.625Z,0
2023-03-22T02:44:49.926Z,0
2023-03-22T02:46:06.197Z,0
2023-03-22T02:47:22.491Z,0
2023-03-22T02:48:37.817Z,0
2023-03-22T02:49:54.118Z,0
2023-03-22T02:51:10.400Z,0
2023-03-22T02:52:26.688Z,0
2023-03-22T02:53:42.987Z,0
2023-03-22T02:54:59.286Z,0
2023-03-22T02:56:15.572Z,0
2023-03-22T02:57:31.881Z,0
2023-03-22T02:58:48.159Z,0
2023-03-22T03:00:04.462Z,0
2023-03-22T03:01:20.748Z,0
2023-03-22T03:02:37.046Z,0
2023-03-22T03:03:53.342Z,0
2023-03-22T03:05:08.657Z,0
2023-03-22T03:06:24.941Z,0
2023-03-22T03:07:41.252Z,0
2023-03-22T03:08:57.548Z,0
2023-03-22T03:10:13.828Z,0
2023-03-22T03:11:30.131Z,0
2023-03-22T03:12:46.419Z,0
2023-03-22T03:14:02.707Z,0
2023-03-22T03:15:19.007Z,0
2023-03-22T03:16:35.302Z,0
2023-03-22T03:17:51.592Z,0
2023-03-22T03:19:07.890Z,0
2023-03-22T03:20:24.186Z,0
2023-03-22T03:21:39.491Z,0
2023-03-22T03:22:55.794Z,0
2023-03-22T03:24:12.084Z,0
2023-03-22T03:25:28.385Z,0
2023-03-22T03:26:44.665Z,0
2023-03-22T03:28:00.969Z,0
2023-03-22T03:29:17.261Z,0
2023-03-22T03:30:33.561Z,0
2023-03-22T03:31:49.840Z,0
2023-03-22T03:33:06.136Z,0
2023-03-22T03:34:22.429Z,0
2023-03-22T03:35:38.729Z,0
2023-03-22T03:36:55.026Z,0
2023-03-22T03:38:10.326Z,0
2023-03-22T03:39:26.639Z,0
2023-03-22T03:40:42.919Z,0
2023-03-22T03:41:59.215Z,0
2023-03-22T03:43:15.501Z,0
2023-03-22T03:44:31.814Z,0
2023-03-22T03:45:48.095Z,0
2023-03-22T03:47:04.383Z,0
2023-03-22T03:48:20.688Z,0
2023-03-22T03:49:36.981Z,0
2023-03-22T03:50:53.273Z,0
2023-03-22T03:52:09.573Z,0
2023-03-22T03:53:25.856Z,0
2023-03-22T03:54:41.169Z,0
2023-03-22T03:55:57.458Z,0
2023-03-22T03:57:13.757Z,0
2023-03-22T03:58:30.047Z,0
2023-03-22T03:59:46.352Z,0
2023-03-22T04:01:02.643Z,0
2023-03-22T04:02:18.939Z,0
2023-03-22T04:03:35.220Z,0
2023-03-22T04:04:51.526Z,0
2023-03-22T04:06:07.828Z,0
2023-03-22T04:07:24.109Z,0
2023-03-22T04:08:40.422Z,0
2023-03-22T04:09:56.697Z,0
2023-03-22T04:11:12.007Z,0
2023-03-22T04:12:28.309Z,0
2023-03-22T04:13:44.597Z,0
2023-03-22T04:15:00.892Z,0
2023-03-22T04:16:17.181Z,0
2023-03-22T04:17:33.483Z,0
2023-03-22T04:18:49.767Z,0
2023-03-22T04:20:06.066Z,0
2023-03-22T04:21:22.365Z,0
2023-03-22T04:22:38.660Z,0
2023-03-22T04:23:54.952Z,0
2023-03-22T04:25:11.242Z,0
2023-03-22T04:26:27.546Z,0
2023-03-22T04:27:42.845Z,0
2023-03-22T04:28:59.134Z,0
2023-03-22T04:30:15.441Z,0
2023-03-22T04:31:31.739Z,0
2023-03-22T04:32:48.036Z,0
2023-03-22T04:34:04.310Z,0
2023-03-22T04:35:20.604Z,0
2023-03-22T04:36:36.900Z,0
2023-03-22T04:37:53.208Z,0
2023-03-22T04:39:09.498Z,0
2023-03-22T04:40:25.799Z,0
2023-03-22T04:41:42.088Z,0
2023-03-22T04:42:58.381Z,0
2023-03-22T04:45:29.919Z,0
2023-03-22T04:46:46.184Z,1
2023-03-22T04:48:02.418Z,1
2023-03-22T04:49:18.654Z,1
2023-03-22T04:50:34.901Z,2
2023-03-22T04:51:51.138Z,1
2023-03-22T04:53:07.385Z,1
2023-03-22T04:54:23.613Z,2
2023-03-22T04:55:39.869Z,2
2023-03-22T04:56:56.104Z,4
2023-03-22T04:58:12.341Z,9
2023-03-22T04:59:28.579Z,10
2023-03-22T05:00:43.833Z,11
2023-03-22T05:02:00.077Z,10
2023-03-22T05:03:16.316Z,17
2023-03-22T05:04:32.568Z,16
2023-03-22T05:05:48.813Z,16
2023-03-22T05:07:05.029Z,17
2023-03-22T05:08:21.292Z,21
2023-03-22T05:09:37.524Z,25
2023-03-22T05:10:53.753Z,31
2023-03-22T05:12:10.012Z,37
2023-03-22T05:13:26.236Z,43
2023-03-22T05:14:42.488Z,54
2023-03-22T05:15:58.730Z,62
2023-03-22T05:17:13.989Z,75
2023-03-22T05:18:30.207Z,84
2023-03-22T05:19:46.448Z,91
2023-03-22T05:21:02.696Z,94
2023-03-22T05:22:18.931Z,103
2023-03-22T05:23:35.166Z,113
2023-03-22T05:24:51.408Z,121
2023-03-22T05:26:07.656Z,132
2023-03-22T05:27:23.906Z,145
2023-03-22T05:28:40.144Z,160
2023-03-22T05:29:56.377Z,170
2023-03-22T05:31:12.614Z,184
2023-03-22T05:32:28.869Z,199
2023-03-22T05:33:44.112Z,212
2023-03-22T05:35:00.359Z,228
2023-03-22T05:36:16.582Z,244
2023-03-22T05:37:32.826Z,259
2023-03-22T05:38:49.074Z,273
2023-03-22T05:40:05.325Z,290
2023-03-22T05:41:21.555Z,308
2023-03-22T05:42:37.000Z,326
2023-03-22T05:43:54.025Z,345
2023-03-22T05:45:10.265Z,371
2023-03-22T05:46:26.507Z,393
2023-03-22T05:47:42.759Z,411
2023-03-22T05:48:59.000Z,434
2023-03-22T05:50:14.253Z,457
2023-03-22T05:51:30.481Z,483
2023-03-22T05:52:46.719Z,505
2023-03-22T05:54:02.984Z,526
2023-03-22T05:55:19.217Z,544
2023-03-22T05:56:35.449Z,575
2023-03-22T05:57:51.690Z,600
2023-03-22T05:59:07.920Z,628
2023-03-22T06:00:24.165Z,667
2023-03-22T06:01:40.414Z,709
2023-03-22T06:02:56.642Z,753
2023-03-22T06:04:12.896Z,800
2023-03-22T06:05:29.133Z,835
2023-03-22T06:06:44.387Z,861
2023-03-22T06:08:00.635Z,876
2023-03-22T06:09:16.873Z,889
2023-03-22T06:10:33.121Z,910
2023-03-22T06:11:49.352Z,922
2023-03-22T06:13:05.586Z,942
2023-03-22T06:14:21.827Z,940
2023-03-22T06:15:38.066Z,940
2023-03-22T06:16:54.297Z,974
2023-03-22T06:18:10.545Z,1015
2023-03-22T06:19:26.795Z,1066
2023-03-22T06:20:43.035Z,1131
2023-03-22T06:21:59.272Z,1172
2023-03-22T06:23:14.521Z,1162
2023-03-22T06:24:30.763Z,1192
2023-03-22T06:25:46.997Z,1222
2023-03-22T06:27:03.257Z,1261
2023-03-22T06:28:19.497Z,1294
2023-03-22T06:29:35.728Z,1256
2023-03-22T06:30:51.966Z,1219
2023-03-22T06:32:08.200Z,1217
2023-03-22T06:33:24.437Z,1228
2023-03-22T06:34:40.690Z,1217
2023-03-22T06:35:56.930Z,1214
2023-03-22T06:37:13.168Z,1249
2023-03-22T06:38:29.404Z,1291
2023-03-22T06:39:44.662Z,1348
2023-03-22T06:41:00.909Z,1331
2023-03-22T06:42:17.150Z,1351
2023-03-22T06:43:33.387Z,1436
2023-03-22T06:44:49.623Z,1468
2023-03-22T06:46:05.863Z,1456
2023-03-22T06:47:22.101Z,1405
2023-03-22T06:48:38.338Z,1407
2023-03-22T06:49:54.592Z,1406
2023-03-22T06:51:10.816Z,1449
2023-03-22T06:52:27.069Z,1435
2023-03-22T06:53:43.295Z,1345
2023-03-22T06:54:59.554Z,1323
2023-03-22T06:56:14.806Z,1318
2023-03-22T06:57:31.045Z,1453
2023-03-22T06:58:47.283Z,1538
2023-03-22T07:00:03.517Z,1590
2023-03-22T07:01:19.761Z,1629
2023-03-22T07:02:35.998Z,1667
2023-03-22T07:03:51.257Z,1743
2023-03-22T07:05:07.509Z,2448
2023-03-22T07:06:23.742Z,2788
2023-03-22T07:07:39.989Z,2864
2023-03-22T07:08:56.226Z,2232
2023-03-22T07:10:12.459Z,2967
2023-03-22T07:11:28.696Z,2294
2023-03-22T07:12:44.929Z,2411
2023-03-22T07:14:01.175Z,2238
2023-03-22T07:15:17.420Z,2342
2023-03-22T07:16:33.652Z,2404
2023-03-22T07:17:49.890Z,2300
2023-03-22T07:19:06.145Z,2070
2023-03-22T07:20:21.400Z,2032
2023-03-22T07:21:37.655Z,1967
2023-03-22T07:22:53.887Z,1950
2023-03-22T07:24:10.109Z,1898
2023-03-22T07:25:26.367Z,1949
2023-03-22T07:26:42.597Z,1995
2023-03-22T07:27:58.844Z,2177
2023-03-22T07:29:15.083Z,2202
2023-03-22T07:30:31.327Z,2207
2023-03-22T07:31:47.571Z,1665
2023-03-22T07:33:03.798Z,3739
2023-03-22T07:34:20.036Z,2780
2023-03-22T07:35:36.290Z,2806
2023-03-22T07:36:51.552Z,3955
2023-03-22T07:38:07.772Z,2942
2023-03-22T07:39:24.002Z,3613
2023-03-22T07:40:40.246Z,6212
2023-03-22T07:41:56.492Z,3418
2023-03-22T07:43:12.736Z,4588
2023-03-22T07:44:28.989Z,4670
2023-03-22T07:45:45.208Z,4125
2023-03-22T07:48:17.681Z,5391
2023-03-22T07:49:33.931Z,5675
2023-03-22T07:50:50.161Z,3777
2023-03-22T07:52:06.405Z,3882
2023-03-22T07:53:21.676Z,25940
2023-03-22T07:54:37.901Z,3254
2023-03-22T07:55:54.148Z,4965
2023-03-22T07:57:10.380Z,27732
2023-03-22T07:58:26.626Z,8266
2023-03-22T07:59:42.866Z,4975
2023-03-22T08:00:59.111Z,30825
2023-03-22T08:02:15.355Z,4064
2023-03-22T08:03:31.594Z,22524
2023-03-22T08:04:47.821Z,22000
2023-03-22T08:06:04.064Z,31346
2023-03-22T08:07:20.305Z,32084
2023-03-22T08:08:36.543Z,14726
2023-03-22T08:09:51.804Z,13186
2023-03-22T08:11:08.043Z,10523
2023-03-22T08:12:24.294Z,4382
2023-03-22T08:13:40.515Z,71905
2023-03-22T08:14:56.773Z,31974
2023-03-22T08:16:13.003Z,16853
2023-03-22T08:17:29.244Z,4497
2023-03-22T08:18:45.488Z,31415
2023-03-22T08:20:01.725Z,14487
2023-03-22T08:21:17.967Z,5502
2023-03-22T08:22:34.199Z,61350
2023-03-22T08:23:50.436Z,10527
2023-03-22T08:25:06.687Z,6069
2023-03-22T08:26:21.923Z,78329
2023-03-22T08:27:38.175Z,80752
2023-03-22T08:28:54.430Z,69714
2023-03-22T08:30:10.648Z,18276
2023-03-22T08:31:26.895Z,76376
2023-03-22T08:32:43.121Z,60528
2023-03-22T08:33:59.382Z,5430
2023-03-22T08:35:15.625Z,68019
2023-03-22T08:36:31.851Z,9448
2023-03-22T08:37:48.095Z,68271
2023-03-22T08:39:04.333Z,29148
2023-03-22T08:40:20.570Z,8711
2023-03-22T08:41:36.818Z,58895
2023-03-22T08:42:52.060Z,8755
2023-03-22T08:44:08.311Z,76676
2023-03-22T08:45:24.558Z,78510
2023-03-22T08:46:40.804Z,76032
2023-03-22T08:47:57.055Z,77747
2023-03-22T08:49:13.264Z,78363
2023-03-22T08:50:29.505Z,80428
2023-03-22T08:51:45.765Z,75211
2023-03-22T08:53:01.984Z,81283
2023-03-22T08:54:18.244Z,79723
2023-03-22T08:55:34.464Z,79239
2023-03-22T08:56:50.725Z,81221
2023-03-22T08:58:06.966Z,78707
2023-03-22T08:59:22.218Z,77825
2023-03-22T09:00:38.443Z,79726
2023-03-22T09:01:54.709Z,80399
2023-03-22T09:03:10.934Z,81004
2023-03-22T09:04:27.166Z,82642
2023-03-22T09:05:43.412Z,77488
2023-03-22T09:06:59.641Z,80351
2023-03-22T09:08:15.892Z,78508
2023-03-22T09:09:32.142Z,78775
2023-03-22T09:10:48.369Z,80676
2023-03-22T09:12:04.610Z,80176
2023-03-22T09:13:20.838Z,79851
2023-03-22T09:14:37.080Z,79087
2023-03-22T09:15:52.356Z,79375
2023-03-22T09:17:08.589Z,81515
2023-03-22T09:18:24.830Z,81728
2023-03-22T09:19:41.083Z,81078
2023-03-22T09:20:57.300Z,81479
2023-03-22T09:22:13.560Z,80310
2023-03-22T09:23:29.795Z,81916
2023-03-22T09:24:46.025Z,81036
2023-03-22T09:26:02.255Z,81069
2023-03-22T09:27:18.509Z,82077
2023-03-22T09:28:34.000Z,80578
2023-03-22T09:29:50.985Z,82588
2023-03-22T09:31:07.235Z,79038
2023-03-22T09:32:22.473Z,76628
2023-03-22T09:33:38.705Z,76555
2023-03-22T09:34:54.971Z,79988
2023-03-22T09:36:11.187Z,83254
2023-03-22T09:37:27.452Z,82497
2023-03-22T09:38:43.666Z,81769
2023-03-22T09:39:59.920Z,81673
2023-03-22T09:41:16.159Z,82820
2023-03-22T09:42:32.399Z,79951
2023-03-22T09:43:48.656Z,82045
2023-03-22T09:45:04.886Z,83036
2023-03-22T09:46:21.134Z,83082
2023-03-22T09:47:37.357Z,81711
2023-03-22T09:48:52.620Z,82846
2023-03-22T09:50:08.854Z,81810
2023-03-22T09:51:25.099Z,80951
2023-03-22T09:52:41.337Z,80372
2023-03-22T09:53:57.569Z,82716
2023-03-22T09:55:13.813Z,81016
2023-03-22T09:56:30.051Z,74511
2023-03-22T09:57:46.282Z,72593
2023-03-22T09:59:02.533Z,22997
2023-03-22T10:00:18.781Z,83321
2023-03-22T10:01:35.020Z,80135
2023-03-22T10:02:51.250Z,81639
2023-03-22T10:04:07.490Z,76097
2023-03-22T10:05:22.747Z,77255
2023-03-22T10:06:38.975Z,77329
2023-03-22T10:07:55.211Z,75386
2023-03-22T10:09:11.466Z,80975
2023-03-22T10:10:27.717Z,74541
2023-03-22T10:11:43.949Z,74799
2023-03-22T10:13:00.195Z,72074
2023-03-22T10:14:16.417Z,32385
2023-03-22T10:15:32.675Z,35735
2023-03-22T10:16:48.904Z,36515
2023-03-22T10:18:05.143Z,74226
2023-03-22T10:19:21.378Z,77592
2023-03-22T10:20:37.626Z,67523
2023-03-22T10:21:52.867Z,8872
2023-03-22T10:23:09.112Z,59534
2023-03-22T10:24:25.358Z,4347
2023-03-22T10:25:41.604Z,6252
2023-03-22T10:26:57.834Z,33917
2023-03-22T10:28:14.068Z,4847
2023-03-22T10:29:30.322Z,75542
2023-03-22T10:30:46.547Z,68464
2023-03-22T10:32:02.795Z,9417
2023-03-22T10:33:19.022Z,70169
2023-03-22T10:34:35.263Z,22887
2023-03-22T10:35:51.512Z,78344
2023-03-22T10:37:07.740Z,78885
2023-03-22T10:38:23.018Z,79203
2023-03-22T10:39:39.244Z,80685
2023-03-22T10:40:55.492Z,81842
2023-03-22T10:42:11.724Z,81913
2023-03-22T10:43:27.978Z,80271
2023-03-22T10:44:44.194Z,77367
2023-03-22T10:46:00.441Z,61313
2023-03-22T10:47:16.687Z,4911
2023-03-22T10:48:32.917Z,20924
2023-03-22T10:49:49.157Z,78937
2023-03-22T10:51:05.412Z,64126
2023-03-22T10:52:21.649Z,7642
2023-03-22T10:53:37.892Z,81056
2023-03-22T10:54:53.131Z,79843
2023-03-22T10:56:09.385Z,81855
2023-03-22T10:57:25.617Z,60386
2023-03-22T10:58:41.871Z,6032
2023-03-22T10:59:58.089Z,58279
2023-03-22T11:01:14.340Z,7424
2023-03-22T11:02:30.598Z,73613
2023-03-22T11:03:46.834Z,78313
2023-03-22T11:05:03.061Z,73278
2023-03-22T11:06:19.298Z,32493
2023-03-22T11:07:35.543Z,5147
2023-03-22T11:08:51.780Z,16136
2023-03-22T11:10:08.035Z,59875
2023-03-22T11:11:23.291Z,3878
2023-03-22T11:12:39.517Z,38496
2023-03-22T11:13:55.784Z,28482
2023-03-22T11:15:12.023Z,19669
2023-03-22T11:16:28.250Z,15619
2023-03-22T11:17:44.479Z,35491
2023-03-22T11:18:59.760Z,29836
2023-03-22T11:20:15.992Z,24942
2023-03-22T11:21:32.230Z,25888
2023-03-22T11:22:48.470Z,29288
2023-03-22T11:24:04.722Z,26876
2023-03-22T11:25:20.942Z,17112
2023-03-22T11:26:37.195Z,3466
2023-03-22T11:27:53.436Z,25507
2023-03-22T11:29:09.688Z,20424
2023-03-22T11:30:25.901Z,18499
2023-03-22T11:31:42.153Z,10771
2023-03-22T11:32:58.384Z,12658
2023-03-22T11:34:14.639Z,5821
2023-03-22T11:35:29.874Z,15349
2023-03-22T11:36:46.141Z,15125
2023-03-22T11:38:02.371Z,7700
2023-03-22T11:39:18.617Z,5482
2023-03-22T11:40:34.855Z,4552
2023-03-22T11:41:51.099Z,4720
2023-03-22T11:43:07.327Z,4517
2023-03-22T11:44:23.565Z,4304
2023-03-22T11:45:39.795Z,3767
2023-03-22T11:46:56.048Z,5553
2023-03-22T11:48:12.299Z,7042
2023-03-22T11:49:28.510Z,9375
2023-03-22T11:50:44.764Z,7150
2023-03-22T11:52:00.006Z,7739
2023-03-22T11:53:16.254Z,8108
2023-03-22T11:54:32.506Z,7852
2023-03-22T11:55:48.739Z,6912
2023-03-22T11:57:04.980Z,6259
2023-03-22T11:58:21.212Z,6257
2023-03-22T11:59:37.459Z,6511
2023-03-22T12:00:53.680Z,5622
2023-03-22T12:02:09.946Z,6808
2023-03-22T12:03:26.158Z,15182
2023-03-22T12:04:42.401Z,11484
2023-03-22T12:05:58.639Z,12866
2023-03-22T12:07:14.915Z,13551
2023-03-22T12:08:30.147Z,18143
2023-03-22T12:09:46.392Z,18102
2023-03-22T12:11:02.633Z,18864
2023-03-22T12:12:18.878Z,12238
2023-03-22T12:13:35.097Z,8771
2023-03-22T12:14:51.343Z,7945
2023-03-22T12:16:07.577Z,3219
2023-03-22T12:17:23.815Z,10208
2023-03-22T12:18:40.066Z,10030
2023-03-22T12:19:56.295Z,10728
2023-03-22T12:21:12.538Z,21780
2023-03-22T12:22:28.796Z,20537
2023-03-22T12:23:45.016Z,11989
2023-03-22T12:25:00.289Z,13315
2023-03-22T12:26:16.513Z,33884
2023-03-22T12:27:32.750Z,68849
2023-03-22T12:30:05.245Z,25616
2023-03-22T12:31:21.502Z,30825
2023-03-22T12:32:37.729Z,17603
2023-03-22T12:33:53.955Z,9582
2023-03-22T12:35:10.194Z,8838
2023-03-22T12:36:26.428Z,9583
2023-03-22T12:37:42.664Z,6004
2023-03-22T12:38:58.920Z,5347
2023-03-22T12:40:15.169Z,7487
2023-03-22T12:41:30.407Z,7459
2023-03-22T12:42:46.639Z,2309
2023-03-22T12:44:02.880Z,14586
2023-03-22T12:45:19.134Z,14708
2023-03-22T12:46:35.394Z,14705
2023-03-22T12:47:51.614Z,12315
2023-03-22T12:49:07.862Z,10531
2023-03-22T12:50:24.104Z,7873
2023-03-22T12:51:40.327Z,9005
2023-03-22T12:52:56.577Z,11499
2023-03-22T12:54:12.800Z,9861
2023-03-22T12:55:29.061Z,9201
2023-03-22T12:56:45.293Z,8728
2023-03-22T12:58:00.570Z,8509
2023-03-22T13:00:33.040Z,8047
2023-03-22T13:01:49.253Z,8029
2023-03-22T13:03:05.500Z,7892
2023-03-22T13:04:21.733Z,7732
2023-03-22T13:05:38.001Z,7456
2023-03-22T13:06:54.218Z,7490
2023-03-22T13:08:10.484Z,7353
2023-03-22T13:09:26.702Z,6264
2023-03-22T13:10:42.950Z,7233
2023-03-22T13:11:59.189Z,6908
2023-03-22T13:13:15.415Z,6960
2023-03-22T13:14:30.678Z,7161
2023-03-22T13:15:46.926Z,7095
2023-03-22T13:17:03.157Z,3456
2023-03-22T13:18:19.399Z,20944
2023-03-22T13:19:35.643Z,25617
2023-03-22T13:20:51.873Z,19028
2023-03-22T13:22:08.116Z,5863
2023-03-22T13:23:24.353Z,11598
2023-03-22T13:24:40.614Z,8205
2023-03-22T13:25:56.855Z,9636
2023-03-22T13:27:13.065Z,7498
2023-03-22T13:28:29.317Z,6865
2023-03-22T13:29:45.546Z,6185
2023-03-22T13:31:00.813Z,5651
2023-03-22T13:32:17.048Z,5137
2023-03-22T13:33:33.295Z,5976
2023-03-22T13:34:49.531Z,4922
2023-03-22T13:36:05.783Z,5144
2023-03-22T13:37:22.011Z,4839
2023-03-22T13:38:38.245Z,5843
2023-03-22T13:39:54.491Z,6580
2023-03-22T13:41:10.749Z,6486
2023-03-22T13:42:26.974Z,5414
2023-03-22T13:43:43.215Z,5997
2023-03-22T13:44:59.445Z,6339
2023-03-22T13:46:15.699Z,5752
2023-03-22T13:47:30.938Z,5594
2023-03-22T13:48:47.205Z,5360
2023-03-22T13:50:03.439Z,5038
2023-03-22T13:51:19.671Z,5150
2023-03-22T13:52:35.909Z,6761
2023-03-22T13:53:52.155Z,7252
2023-03-22T13:55:08.379Z,7217
2023-03-22T13:56:24.627Z,8321
2023-03-22T13:57:40.852Z,7684
2023-03-22T13:58:57.096Z,7286
2023-03-22T14:01:29.588Z,5732
2023-03-22T14:02:45.815Z,5201
2023-03-22T14:04:01.089Z,5019
2023-03-22T14:05:17.317Z,4668
2023-03-22T14:06:33.552Z,4371
2023-03-22T14:07:49.797Z,4401
2023-03-22T14:09:06.028Z,4369
2023-03-22T14:10:22.299Z,4106
2023-03-22T14:11:38.505Z,3895
2023-03-22T14:12:54.768Z,3791
2023-03-22T14:14:11.010Z,3735
2023-03-22T14:15:27.227Z,3810
2023-03-22T14:16:43.487Z,3912
2023-03-22T14:17:59.715Z,3749
2023-03-22T14:19:15.942Z,3563
2023-03-22T14:20:31.227Z,3469
2023-03-22T14:21:47.467Z,3493
2023-03-22T14:52:16.217Z,3468
2023-03-22T14:53:31.000Z,3125
2023-03-22T14:54:47.704Z,4003
2023-03-22T14:56:03.941Z,3234
2023-03-22T14:57:20.193Z,3303
2023-03-22T14:58:36.454Z,3524
2023-03-22T14:59:52.665Z,3471
2023-03-22T15:01:08.903Z,3385
2023-03-22T15:02:25.145Z,3172
2023-03-22T15:03:41.384Z,3168
2023-03-22T15:04:57.635Z,3143
2023-03-22T15:06:13.867Z,3020
2023-03-22T15:07:30.105Z,2912
2023-03-22T15:08:46.355Z,2889
2023-03-22T15:10:01.625Z,2784
2023-03-22T15:11:17.859Z,2761
2023-03-22T15:12:34.117Z,2759
2023-03-22T15:13:50.315Z,2712
2023-03-22T15:15:06.560Z,2755
2023-03-22T15:17:39.050Z,2941
2023-03-22T15:18:55.282Z,2676
2023-03-22T15:20:11.515Z,2814
2023-03-22T15:21:27.778Z,2701
2023-03-22T15:22:44.006Z,2643
2023-03-22T15:24:00.232Z,2662
2023-03-22T15:25:16.498Z,2651
2023-03-22T15:26:31.761Z,2586
2023-03-22T15:27:47.973Z,2424
2023-03-22T15:29:04.000Z,2761
2023-03-22T15:30:20.472Z,2406
2023-03-22T15:31:36.689Z,2549
2023-03-22T15:32:52.940Z,2846
2023-03-22T15:34:08.220Z,2508
2023-03-22T15:35:24.469Z,2407
2023-03-22T15:36:40.665Z,2158
2023-03-22T15:37:56.907Z,2676
2023-03-22T15:39:13.153Z,2347
2023-03-22T15:40:29.401Z,2266
2023-03-22T15:41:45.635Z,2210
2023-03-22T15:43:01.863Z,2191
2023-03-22T15:44:18.108Z,2142
2023-03-22T15:45:34.358Z,2099
2023-03-22T15:46:50.626Z,2075
2023-03-22T15:48:06.853Z,2020
2023-03-22T15:49:23.074Z,1965
2023-03-22T15:50:38.352Z,1911
2023-03-22T15:51:54.556Z,1863
2023-03-22T15:53:10.799Z,1824
2023-03-22T15:54:27.035Z,1793
2023-03-22T15:55:43.284Z,1762
2023-03-22T15:56:59.533Z,1716
2023-03-22T15:58:15.800Z,1697
2023-03-22T15:59:31.999Z,1685
2023-03-22T16:00:48.279Z,1668
2023-03-22T16:02:04.488Z,1629
2023-03-22T16:03:20.716Z,1588
2023-03-22T16:04:36.984Z,1552
2023-03-22T16:05:53.235Z,1514
2023-03-22T16:07:08.469Z,1489
2023-03-22T16:08:24.723Z,1450
2023-03-22T16:09:40.937Z,1413
2023-03-22T16:10:57.181Z,1377
2023-03-22T16:12:13.423Z,1331
2023-03-22T16:13:29.686Z,1280
2023-03-22T16:14:45.896Z,1234
2023-03-22T16:16:02.146Z,1182
2023-03-22T16:17:18.371Z,1127
2023-03-22T16:18:34.616Z,1081
2023-03-22T16:19:50.845Z,1046
2023-03-22T16:21:07.087Z,1003
2023-03-22T16:22:23.333Z,959
2023-03-22T16:23:38.611Z,917
2023-03-22T16:24:54.831Z,872
2023-03-22T16:26:11.098Z,826
2023-03-22T16:27:27.305Z,772
2023-03-22T16:28:43.571Z,723
2023-03-22T16:29:59.789Z,682
2023-03-22T16:31:16.055Z,655
2023-03-22T16:32:32.267Z,630
2023-03-22T16:33:48.504Z,609
2023-03-22T16:35:04.745Z,593
2023-03-22T16:36:21.029Z,578
2023-03-22T16:37:37.230Z,562
2023-03-22T16:38:53.496Z,535
2023-03-22T16:41:24.983Z,486
2023-03-22T16:42:41.205Z,462
2023-03-22T16:43:57.438Z,439
2023-03-22T16:45:13.685Z,417
2023-03-22T16:46:29.917Z,397
2023-03-22T16:47:46.156Z,382
2023-03-22T16:49:02.434Z,364
2023-03-22T16:50:18.646Z,346
2023-03-22T16:51:34.902Z,333
2023-03-22T16:52:51.129Z,311
2023-03-22T16:54:07.399Z,292
2023-03-22T16:55:23.611Z,276
2023-03-22T16:56:38.885Z,263
2023-03-22T16:57:55.105Z,246
2023-03-22T16:59:11.361Z,230
2023-03-22T17:00:27.573Z,219
2023-03-22T17:01:43.850Z,205
2023-03-22T17:03:00.049Z,192
2023-03-22T17:04:16.287Z,179
2023-03-22T17:05:32.541Z,168
2023-03-22T17:06:48.765Z,161
2023-03-22T17:08:05.006Z,149
2023-03-22T17:09:21.294Z,138
2023-03-22T17:10:37.505Z,129
2023-03-22T17:11:53.738Z,121
2023-03-22T17:13:09.032Z,116
2023-03-22T17:14:25.230Z,106
2023-03-22T17:15:41.480Z,99
2023-03-22T17:16:57.748Z,90
2023-03-22T17:18:13.943Z,81
2023-03-22T17:19:30.213Z,70
2023-03-22T17:20:46.431Z,60
2023-03-22T17:22:02.664Z,52
2023-03-22T17:23:18.907Z,43
2023-03-22T17:24:35.173Z,37
2023-03-22T17:25:51.380Z,31
2023-03-22T17:27:07.661Z,27
2023-03-22T17:28:23.869Z,24
2023-03-22T17:29:39.149Z,21
2023-03-22T17:30:55.362Z,20
2023-03-22T17:32:11.644Z,17
2023-03-22T17:33:27.839Z,16
2023-03-22T17:34:44.106Z,14
2023-03-22T17:36:00.327Z,12
2023-03-22T17:37:16.591Z,10
2023-03-22T17:38:32.798Z,8
2023-03-22T17:39:49.077Z,7
2023-03-22T17:41:05.292Z,6
2023-03-22T17:42:21.512Z,3
2023-03-22T17:43:37.751Z,3
2023-03-22T17:44:54.041Z,2
2023-03-22T17:46:09.249Z,1
2023-03-22T17:47:25.498Z,2
2023-03-22T17:48:41.735Z,1
2023-03-22T17:49:58.002Z,1
2023-03-22T17:51:14.273Z,0
2023-03-22T17:52:30.557Z,0
2023-03-22T17:53:46.848Z,0
2023-03-22T17:55:03.180Z,0
2023-03-22T17:56:19.440Z,0
2023-03-22T17:57:35.770Z,0
2023-03-22T17:58:52.023Z,0
2023-03-22T18:00:08.323Z,0
2023-03-22T18:01:24.623Z,0
2023-03-22T18:02:39.960Z,0
2023-03-22T18:03:56.228Z,0